Lambs Grove, Iowa
Current Conditions -  °F | °C
As of 12:55 PM on Friday 21 Nov 2014 (Local Time) from KTNU Reporting Station
Clear Clear  
Wind Chill: 21°   Ceiling: Unl
Heat Index: 32°   Visibility: 10mi
Dew Point: 19°   Wind: 17mph
Humidity: 60%   Direction: 150°SSE
Pressure: 30.2"   Gusts: 23mph
Location:  41.7317°N, 93.0122°W
Report Text: KTNU 211855Z AUTO 15015G20KT 10SM CLR M00/M07 A3020 RMK AO2
Loading
Personal Weather Stations






























Interactive Weather Map New forecast layout! Learn more

10-Day Weather Forecast

Advertisements
Track Severe Weather on mobile